Lorraine — A8IZ3 — position and weather

sailwx.info

Track history (hours):
 
Tides and Currents Weather Stations Pressure Air Temp Water Temp Dewpoint Dewpoint Depression Visibility Wind Speed Wind Dir Waves Ship Positions

Lorraine

Last reported at 2017-Jun-25 09:28 UTC. Time now 2017-Jun-29 14:26 UTC.
Position N 38°51' E 121°55'.

Length 221 m; draft 9.7 m.

Type: Ship. MMSI: 636012905.

Date/timePositionNaut miles runAvg speedWind from/ knotsBaromVisibWave heightAir tempDewpointWater temp
2017-Jun-25 09:28N 38°51' E 121°55'817.6
2017-Jun-25 09:00N 38°44' E 121°50'29 0.6
2017-Jun-23 12:47N 38°19' E 121°32'1013.8
2017-Jun-23 12:01N 38°14' E 121°44'313.5
2017-Jun-23 11:48N 38°13' E 121°47'713.6
2017-Jun-23 11:18N 38°09' E 121°54'1413.6
2017-Jun-23 10:17N 38°02' E 122°10'413.6
2017-Jun-23 10:00N 38°00' E 122°14'1513.8
2017-Jun-23 08:54N 37°52' E 122°30'614.1
2017-Jun-23 08:30N 37°50' E 122°37'914.2
2017-Jun-23 07:52N 37°45' E 122°46'  
2017-Jun-19 15:24N 22°19' E 114°07'  
Track history (hours):
 
Tides and Currents Weather Stations Pressure Air Temp Water Temp Dewpoint Dewpoint Depression Visibility Wind Speed Wind Dir Waves Ship Positions

Lorraine

Last reported at 2017-Jun-25 09:28 UTC. Time now 2017-Jun-29 14:26 UTC.
Position N 38°51' E 121°55'.

Length 221 m; draft 9.7 m.

Type: Ship. MMSI: 636012905.

Date/timePositionNaut miles runAvg speedWind from/ knotsBaromVisibWave heightAir tempDewpointWater temp
2017-Jun-25 09:28N 38°51' E 121°55'817.6
2017-Jun-25 09:00N 38°44' E 121°50'29 0.6
2017-Jun-23 12:47N 38°19' E 121°32'1013.8
2017-Jun-23 12:01N 38°14' E 121°44'313.5
2017-Jun-23 11:48N 38°13' E 121°47'713.6
2017-Jun-23 11:18N 38°09' E 121°54'1413.6
2017-Jun-23 10:17N 38°02' E 122°10'413.6
2017-Jun-23 10:00N 38°00' E 122°14'1513.8
2017-Jun-23 08:54N 37°52' E 122°30'614.1
2017-Jun-23 08:30N 37°50' E 122°37'914.2
2017-Jun-23 07:52N 37°45' E 122°46'  
2017-Jun-19 15:24N 22°19' E 114°07'  

Dump ship's entire track history